Etusivu
METAR-TAF:

METAR-TAF

Lentoasemat :

Sogndal, Norja

Leveyspiiri: 61-09N, Pituuspiiri: 007-08E, korkeus merenpinnasta: 49 m

Tämänhetkinen sää

Tämä raportti tehtiin 19 minuuttia sitten, kello 07.50 UTC
Tuuli 2 kn eri suunnista
Lämpötila 18°C
Kosteus 59%
Ilmanpaine 1009 hPa
Näkyvyys 10 km tai enemmän

METAR: ENSG 140750Z AUTO VRB02KT 9999 BKN090/// OVC186/// 18/10 Q1009 RMK WIND 3806FT 04006KT

Aika: 10:09 (08:09 UTC)

Sääennuste

Tämä raportti tehtiin 9 minuuttia sitten, kello 08.00 UTC
Ennuste voimassa 13. päivästä klo 09 UTC - 13. päivään klo 15 UTC
Tuuli 5 kn idästä
Näkyvyys 10 km tai enemmän
ei pilviä alle 1500 m:ssä eikä cumulonimbus-pilviä

TAF: ENSG 130800Z 1309/1315 08005KT CAVOK

Säähavainnot ja -ennusteet yli 4000 lentoasemalta (METAR- ja TAF-raportit).

Käytössä olevat sääasemat on merkitty karttaan keltaisilla ja punaisilla pisteillä.

Aseta hiiri pisteen päälle nähdäksesi sääaseman nimen.

Klikkaa sitten nähdäksesi säähavainnot ja -ennusteet.

Kartan vaihtaminen: klikkaa mustalla rastilla varustettuja vihreitä pisteitä, niin voit zoomata sisään; viivalla varustettua vihreää pistettä, niin voit zoomata ulos tai vihreitä nuolia, niin pääset viereisille kartoille.


METAR-TAF: